createdAt,value
2023-05-15T00:03:38.182Z,99953.13
2023-05-15T00:08:40.186Z,99955.22
2023-05-15T00:13:41.624Z,99962.09
2023-05-15T00:18:43.027Z,99953.75
2023-05-15T00:23:44.433Z,99948.59
2023-05-15T00:28:45.839Z,99958.56
2023-05-15T00:33:47.524Z,99958.81
2023-05-15T00:38:48.934Z,99943.00
2023-05-15T00:43:52.168Z,99940.53
2023-05-15T00:48:54.804Z,99942.59
2023-05-15T00:53:56.796Z,99940.75
2023-05-15T00:58:59.890Z,99940.50
2023-05-15T01:04:02.418Z,99931.56
2023-05-15T01:09:05.325Z,99930.94
2023-05-15T01:14:08.653Z,99933.03
2023-05-15T01:19:10.204Z,99939.91
2023-05-15T01:24:28.021Z,99928.03
2023-05-15T01:29:44.353Z,99933.47
2023-05-15T01:34:54.938Z,99928.88
2023-05-15T01:40:02.373Z,99926.78
2023-05-15T01:45:06.045Z,99929.91
2023-05-15T01:50:10.059Z,99929.91
2023-05-15T01:55:14.606Z,99942.16
2023-05-15T02:00:17.225Z,99939.88
2023-05-15T02:05:19.104Z,99930.28
2023-05-15T02:10:22.052Z,99923.03
2023-05-15T02:15:24.871Z,99918.06
2023-05-15T02:20:26.381Z,99916.81
2023-05-15T02:25:46.692Z,99914.50
2023-05-15T02:30:58.029Z,99919.69
2023-05-15T02:36:04.400Z,99921.34
2023-05-15T02:41:07.561Z,99921.09
2023-05-15T02:46:09.316Z,99921.28
2023-05-15T02:51:10.850Z,99918.56
2023-05-15T02:56:12.319Z,99918.56
2023-05-15T03:01:13.790Z,99921.84
2023-05-15T03:06:15.259Z,99924.91
2023-05-15T03:11:19.137Z,99922.22
2023-05-15T03:16:20.732Z,99920.53
2023-05-15T03:21:22.194Z,99924.47
2023-05-15T03:26:23.612Z,99915.34
2023-05-15T03:31:25.229Z,99925.09
2023-05-15T03:36:26.730Z,99915.72
2023-05-15T03:41:28.235Z,99910.06
2023-05-15T03:46:29.654Z,99916.47
2023-05-15T03:51:31.358Z,99928.09
2023-05-15T03:56:33.050Z,99915.22
2023-05-15T04:01:39.334Z,99922.47
2023-05-15T04:06:49.787Z,99923.50
2023-05-15T04:11:51.200Z,99919.38
2023-05-15T04:16:52.694Z,99923.13
2023-05-15T04:21:54.036Z,99921.94
2023-05-15T04:26:55.393Z,99920.50
2023-05-15T04:31:56.900Z,99928.78
2023-05-15T04:36:58.478Z,99924.66
2023-05-15T04:41:59.847Z,99927.00
2023-05-15T04:47:01.241Z,99921.66
2023-05-15T04:52:02.707Z,99917.94
2023-05-15T04:57:04.191Z,99927.56
2023-05-15T05:02:05.761Z,99925.94
2023-05-15T05:07:08.019Z,99927.19
2023-05-15T05:12:09.649Z,99924.72
2023-05-15T05:17:11.231Z,99923.69
2023-05-15T05:22:12.622Z,99924.53
2023-05-15T05:27:14.074Z,99934.69
2023-05-15T05:32:15.557Z,99931.78
2023-05-15T05:37:16.884Z,99940.28
2023-05-15T05:42:18.249Z,99937.34
2023-05-15T05:47:19.614Z,99941.47
2023-05-15T05:52:20.984Z,99939.97
2023-05-15T05:57:22.458Z,99938.41
2023-05-15T06:02:24.437Z,99936.25
2023-05-15T06:07:25.993Z,99934.09
2023-05-15T06:12:27.966Z,99933.22
2023-05-15T06:17:29.399Z,99937.78
2023-05-15T06:22:32.957Z,99945.00
2023-05-15T06:27:34.424Z,99927.88
2023-05-15T06:32:35.868Z,99931.31
2023-05-15T06:37:37.599Z,99927.34
2023-05-15T06:42:38.989Z,99932.56
2023-05-15T06:47:40.341Z,99925.91
2023-05-15T06:52:41.713Z,99920.63
2023-05-15T06:57:44.115Z,99918.41
2023-05-15T07:02:45.689Z,99913.91
2023-05-15T07:07:47.331Z,99918.34
2023-05-15T07:12:48.669Z,99918.41
2023-05-15T07:17:50.175Z,99921.78
2023-05-15T07:22:56.291Z,99904.56
2023-05-15T07:27:58.297Z,99905.34
2023-05-15T07:32:59.735Z,99904.09
2023-05-15T07:38:01.367Z,99905.66
2023-05-15T07:43:02.750Z,99910.28
2023-05-15T07:48:17.975Z,99900.41
2023-05-15T07:53:19.816Z,99896.94
2023-05-15T07:58:21.495Z,99889.88
2023-05-15T08:03:23.186Z,99890.91
2023-05-15T08:08:24.779Z,99874.13
2023-05-15T08:13:26.208Z,99881.25
2023-05-15T08:18:27.629Z,99876.97
2023-05-15T08:23:29.102Z,99879.31
2023-05-15T08:28:30.518Z,99880.63
2023-05-15T08:33:31.929Z,99880.94
2023-05-15T08:38:33.521Z,99875.38
2023-05-15T08:43:39.039Z,99869.91
2023-05-15T08:48:42.192Z,99862.13
2023-05-15T08:53:43.965Z,99862.50
2023-05-15T08:58:45.525Z,99874.91
2023-05-15T09:03:47.102Z,99868.63
2023-05-15T09:08:49.946Z,99865.31
2023-05-15T09:13:51.362Z,99858.31
2023-05-15T09:18:54.217Z,99852.09
2023-05-15T09:24:15.760Z,99851.28
2023-05-15T09:29:18.923Z,99847.75
2023-05-15T09:34:29.873Z,99847.06
2023-05-15T09:39:31.222Z,99852.28
2023-05-15T09:44:33.946Z,99849.84
2023-05-15T09:49:35.596Z,99837.34
2023-05-15T09:54:37.949Z,99849.78
2023-05-15T09:59:47.901Z,99834.72
2023-05-15T10:04:56.938Z,99824.16
2023-05-15T10:09:59.145Z,99819.63
2023-05-15T10:15:01.727Z,99821.03
2023-05-15T10:20:06.910Z,99823.09
2023-05-15T10:25:42.170Z,99820.94
2023-05-15T10:30:44.000Z,99821.94
2023-05-15T10:35:46.890Z,99810.50
2023-05-15T10:40:49.407Z,99813.97
2023-05-15T10:45:52.459Z,99819.50
2023-05-15T10:50:53.983Z,99799.75
2023-05-15T10:55:55.534Z,99804.22
2023-05-15T11:00:57.302Z,99794.31
2023-05-15T11:06:10.165Z,99793.50
2023-05-15T11:11:54.701Z,99784.69
2023-05-15T11:16:57.964Z,99774.44
2023-05-15T11:22:09.088Z,99774.06
2023-05-15T11:27:13.192Z,99779.47
2023-05-15T11:32:40.584Z,99762.47
2023-05-15T11:37:43.867Z,99761.84
2023-05-15T11:43:04.623Z,99769.56
2023-05-15T11:48:07.967Z,99766.78
2023-05-15T11:53:10.232Z,99779.72
2023-05-15T11:58:23.052Z,99789.25
2023-05-15T12:03:36.097Z,99771.50
2023-05-15T12:08:38.474Z,99774.31
2023-05-15T12:13:39.820Z,99773.50
2023-05-15T12:18:41.195Z,99777.03
2023-05-15T12:23:59.896Z,99772.66
2023-05-15T12:29:08.318Z,99776.78
2023-05-15T12:34:10.681Z,99774.84
2023-05-15T12:39:12.742Z,99759.78
2023-05-15T12:44:17.601Z,99763.03
2023-05-15T12:49:22.705Z,99769.09
2023-05-15T12:54:24.302Z,99763.03
2023-05-15T12:59:25.760Z,99774.78
2023-05-15T13:04:27.723Z,99788.00
2023-05-15T13:09:29.506Z,99781.94
2023-05-15T13:14:34.661Z,99780.88
2023-05-15T13:19:36.057Z,99789.84
2023-05-15T13:24:37.540Z,99785.53
2023-05-15T13:29:38.914Z,99783.53
2023-05-15T13:34:40.515Z,99780.34
2023-05-15T13:39:41.847Z,99794.81
2023-05-15T13:44:43.409Z,99821.47
2023-05-15T13:49:45.538Z,99865.19
2023-05-15T13:54:46.883Z,99854.19
2023-05-15T13:59:48.506Z,99874.66
2023-05-15T14:04:49.874Z,99875.09
2023-05-15T14:09:51.643Z,99891.78
2023-05-15T14:14:53.125Z,99888.44
2023-05-15T14:19:54.730Z,99884.16
2023-05-15T14:24:56.096Z,99870.75
2023-05-15T14:29:57.515Z,99857.81
2023-05-15T14:34:59.836Z,99852.25
2023-05-15T14:40:01.548Z,99846.75
2023-05-15T14:45:03.190Z,99846.81
2023-05-15T14:50:05.113Z,99864.91
2023-05-15T14:55:09.577Z,99845.31
2023-05-15T15:00:13.264Z,99841.69
2023-05-15T15:05:14.634Z,99837.84
2023-05-15T15:10:15.981Z,99829.78
2023-05-15T15:15:17.865Z,99832.25
2023-05-15T15:20:20.478Z,99832.19
2023-05-15T15:25:22.128Z,99832.28
2023-05-15T15:30:23.629Z,99825.25
2023-05-15T15:35:25.297Z,99827.31
2023-05-15T15:40:26.941Z,99828.41
2023-05-15T15:45:28.514Z,99813.81
2023-05-15T15:50:29.979Z,99825.44
2023-05-15T15:55:31.360Z,99834.50
2023-05-15T16:00:32.744Z,99832.34
2023-05-15T16:05:34.116Z,99837.56
2023-05-15T16:10:35.564Z,99830.91
2023-05-15T16:15:37.024Z,99832.63
2023-05-15T16:20:38.910Z,99837.00
2023-05-15T16:25:40.475Z,99832.41
2023-05-15T16:30:48.814Z,99834.84
2023-05-15T16:35:52.336Z,99832.59
2023-05-15T16:40:53.997Z,99823.78
2023-05-15T16:45:55.645Z,99826.59
2023-05-15T16:50:57.013Z,99831.69
2023-05-15T16:55:58.515Z,99824.50
2023-05-15T17:00:59.886Z,99826.09
2023-05-15T17:06:01.359Z,99831.91
2023-05-15T17:11:02.762Z,99829.75
2023-05-15T17:16:04.306Z,99832.03
2023-05-15T17:21:06.191Z,99831.06
2023-05-15T17:26:07.538Z,99834.75
2023-05-15T17:31:10.350Z,99836.34
2023-05-15T17:36:11.774Z,99849.81
2023-05-15T17:41:13.119Z,99842.19
2023-05-15T17:46:14.567Z,99845.31
2023-05-15T17:51:16.138Z,99849.78
2023-05-15T17:56:17.847Z,99854.75
2023-05-15T18:01:19.934Z,99861.44
2023-05-15T18:06:21.661Z,99856.44
2023-05-15T18:11:23.303Z,99863.31
2023-05-15T18:16:24.903Z,99873.53
2023-05-15T18:21:26.477Z,99870.94
2023-05-15T18:26:31.212Z,99872.91
2023-05-15T18:31:32.854Z,99886.56
2023-05-15T18:36:34.504Z,99895.81
2023-05-15T18:41:35.869Z,99901.28
2023-05-15T18:46:37.984Z,99905.56
2023-05-15T18:51:39.409Z,99907.00
2023-05-15T18:56:43.147Z,99914.69
2023-05-15T19:01:46.335Z,99916.47
2023-05-15T19:06:51.029Z,99917.31
2023-05-15T19:11:52.501Z,99925.00
2023-05-15T19:16:54.220Z,99928.66
2023-05-15T19:21:55.667Z,99938.25
2023-05-15T19:26:57.035Z,99946.75
2023-05-15T19:31:58.482Z,99951.38
2023-05-15T19:36:59.908Z,99951.88
2023-05-15T19:42:01.386Z,99964.84
2023-05-15T19:47:03.468Z,99977.63
2023-05-15T19:52:05.714Z,99994.44
2023-05-15T19:57:07.150Z,99992.06
2023-05-15T20:02:10.454Z,99992.66
2023-05-15T20:07:12.833Z,99997.16
2023-05-15T20:12:14.297Z,100001.88
2023-05-15T20:17:16.149Z,100012.44
2023-05-15T20:22:17.542Z,100005.88
2023-05-15T20:27:19.174Z,100009.84
2023-05-15T20:32:21.648Z,99999.72
2023-05-15T20:37:27.583Z,100001.25
2023-05-15T20:47:44.929Z,100009.00
2023-05-15T20:52:46.556Z,100013.84
2023-05-15T20:57:50.157Z,100008.03
2023-05-15T21:02:53.565Z,100013.44
2023-05-15T21:07:57.522Z,100009.03
2023-05-15T21:13:00.590Z,100008.31
2023-05-15T21:18:02.696Z,100013.41
2023-05-15T21:23:04.298Z,100011.97
2023-05-15T21:28:06.590Z,100011.56
2023-05-15T21:33:09.487Z,100018.03
2023-05-15T21:38:13.556Z,100015.72
2023-05-15T21:43:15.005Z,100017.56
2023-05-15T21:48:18.957Z,100018.03
2023-05-15T21:53:20.564Z,100018.69
2023-05-15T21:58:22.034Z,100022.84
2023-05-15T22:03:24.116Z,100025.97
2023-05-15T22:08:25.670Z,100030.41
2023-05-15T22:13:27.548Z,100024.84
2023-05-15T22:18:29.020Z,100031.13
2023-05-15T22:23:31.433Z,100030.50
2023-05-15T22:28:33.863Z,100022.88
2023-05-15T22:33:35.593Z,100025.78
2023-05-15T22:38:38.501Z,100036.03
2023-05-15T22:43:40.082Z,100039.09
2023-05-15T22:48:41.868Z,100036.66
2023-05-15T22:53:44.701Z,100032.31
2023-05-15T22:58:47.880Z,100046.72
2023-05-15T23:03:49.492Z,100049.28
2023-05-15T23:08:51.246Z,100049.47
2023-05-15T23:13:52.769Z,100048.88
2023-05-15T23:18:56.606Z,100040.28
2023-05-15T23:23:58.263Z,100052.00
2023-05-15T23:28:59.871Z,100056.78
2023-05-15T23:34:01.371Z,100049.69
2023-05-15T23:39:03.256Z,100056.19
2023-05-15T23:44:04.873Z,100055.34
2023-05-15T23:49:06.291Z,100055.16
2023-05-15T23:54:07.949Z,100050.59
2023-05-15T23:59:10.460Z,100064.97
